Time;durP1;ratioP1;P1;durP2;ratioP2;P2;SDS_P1;SDS_P2;PMS_P1;PMS_P2;Temp;Humidity;BMP_temperature;BMP_pressure;BME280_temperature;BME280_humidity;BME280_pressure;Samples;Min_cycle;Max_cycle;Signal;HPM_P1;HPM_P2
2023/03/31 00:00:42;;;;;;;6.80;4.78;;;;;;;9.92;96.15;98755.94;5052475;28;20043;-77
2023/03/31 00:03:09;;;;;;;9.85;4.78;;;;;;;9.78;96.01;98737.69;5052828;28;20021;-76
2023/03/31 00:05:38;;;;;;;7.13;4.75;;;;;;;9.71;95.88;98728.56;5052505;28;20484;-76
2023/03/31 00:08:06;;;;;;;5.82;4.47;;;;;;;9.70;95.91;98737.31;5052425;28;20048;-76
2023/03/31 00:10:33;;;;;;;7.95;4.72;;;;;;;9.68;95.90;98741.75;5052561;28;20028;-76
2023/03/31 00:13:00;;;;;;;7.32;4.47;;;;;;;9.75;95.77;98758.66;5052298;28;20075;-76
2023/03/31 00:15:26;;;;;;;6.22;4.32;;;;;;;9.69;96.12;98746.00;5052454;28;20036;-76
2023/03/31 00:17:51;;;;;;;8.07;4.95;;;;;;;9.45;96.44;98724.88;5052132;28;20058;-76
2023/03/31 00:20:16;;;;;;;9.38;6.30;;;;;;;9.42;96.01;98727.63;5052361;28;20111;-77
2023/03/31 00:22:45;;;;;;;8.65;6.28;;;;;;;9.34;96.20;98719.44;5052176;28;20029;-76
2023/03/31 00:25:12;;;;;;;18.83;10.57;;;;;;;9.29;96.57;98724.88;5052364;28;20060;-76
2023/03/31 00:27:40;;;;;;;17.17;10.05;;;;;;;9.14;96.65;98702.34;5052254;28;20052;-76
2023/03/31 00:30:07;;;;;;;20.40;10.65;;;;;;;9.11;96.55;98698.19;5051956;28;20099;-76
2023/03/31 00:32:32;;;;;;;20.40;10.55;;;;;;;9.30;96.94;98734.34;5052341;28;20028;-76
2023/03/31 00:34:58;;;;;;;17.85;10.05;;;;;;;9.19;96.86;98736.72;5052037;28;20051;-76
2023/03/31 00:37:23;;;;;;;20.85;11.68;;;;;;;9.04;97.27;98716.78;5052240;28;20110;-76
2023/03/31 00:39:49;;;;;;;20.15;12.05;;;;;;;8.94;96.94;98712.09;5051902;28;20155;-76
2023/03/31 00:42:14;;;;;;;16.70;11.13;;;;;;;8.96;97.03;98717.19;5052033;28;20392;-76
2023/03/31 00:45:13;;;;;;;19.15;12.90;;;;;;;9.04;97.29;98740.16;5051966;28;20051;-76
2023/03/31 00:47:46;;;;;;;14.48;11.70;;;;;;;8.99;97.53;98730.84;5052125;28;20104;-76
2023/03/31 00:50:28;;;;;;;16.83;11.32;;;;;;;8.95;97.53;98731.09;5051870;28;20044;-76
2023/03/31 00:52:58;;;;;;;16.33;10.82;;;;;;;8.73;97.86;98700.28;5051687;28;20114;-76
2023/03/31 00:55:31;;;;;;;13.52;11.05;;;;;;;8.86;97.33;98735.06;5050558;28;20389;-76
2023/03/31 00:57:56;;;;;;;19.85;12.80;;;;;;;8.81;97.51;98725.84;5051874;28;20464;-76
2023/03/31 01:00:22;;;;;;;20.15;13.38;;;;;;;8.80;97.17;98718.94;5051977;28;20032;-76
2023/03/31 01:03:01;;;;;;;15.70;13.05;;;;;;;8.66;97.28;98707.56;5051626;28;20036;-76
2023/03/31 01:05:55;;;;;;;15.68;13.23;;;;;;;8.78;97.65;98723.41;5051794;28;20025;-76
2023/03/31 01:08:25;;;;;;;20.65;17.13;;;;;;;8.57;97.41;98687.28;5049482;28;20393;-76
2023/03/31 01:10:53;;;;;;;19.52;15.05;;;;;;;8.57;97.68;98695.06;5055637;28;20108;-76
2023/03/31 01:13:20;;;;;;;16.42;13.13;;;;;;;8.58;97.90;98685.53;5055969;28;20380;-76
2023/03/31 01:15:45;;;;;;;15.82;13.07;;;;;;;8.67;98.17;98705.78;5055551;28;20028;-76
2023/03/31 01:18:15;;;;;;;17.98;13.52;;;;;;;8.62;97.76;98706.03;5055676;28;20040;-76
2023/03/31 01:21:05;;;;;;;19.83;14.38;;;;;;;8.56;97.55;98702.97;5055676;28;20139;-76
2023/03/31 01:23:51;;;;;;;18.50;13.00;;;;;;;8.48;98.17;98699.00;5055730;28;20045;-76
2023/03/31 01:26:38;;;;;;;14.13;10.93;;;;;;;8.40;97.94;98698.56;5054401;28;20413;-76
2023/03/31 01:29:26;;;;;;;14.98;10.55;;;;;;;8.34;98.32;98690.22;5055394;28;20060;-76
2023/03/31 01:32:28;;;;;;;12.85;10.10;;;;;;;8.31;98.31;98693.00;5055398;28;20064;-76
2023/03/31 01:35:09;;;;;;;16.90;11.35;;;;;;;8.27;98.38;98689.72;5055169;28;20480;-76
2023/03/31 01:37:53;;;;;;;15.20;10.20;;;;;;;8.21;98.67;98680.50;5055606;28;20029;-76
2023/03/31 01:40:39;;;;;;;18.63;11.55;;;;;;;8.25;99.04;98681.19;5055380;28;20480;-76
2023/03/31 01:43:15;;;;;;;20.85;12.52;;;;;;;8.24;99.05;98685.53;5054930;28;20464;-76
2023/03/31 01:45:54;;;;;;;18.83;12.82;;;;;;;8.19;98.96;98679.75;5055293;28;20021;-76
2023/03/31 01:48:45;;;;;;;16.42;10.50;;;;;;;8.16;98.90;98677.31;5055344;28;20036;-76
2023/03/31 01:51:34;;;;;;;16.40;10.57;;;;;;;8.13;98.84;98687.88;5055219;28;20037;-76
2023/03/31 01:54:11;;;;;;;21.80;12.38;;;;;;;8.10;99.30;98680.22;5055121;28;20033;-76
2023/03/31 01:56:55;;;;;;;17.73;11.52;;;;;;;8.09;99.15;98669.91;5055171;28;20111;-76
2023/03/31 01:59:34;;;;;;;14.57;10.63;;;;;;;7.94;99.39;98627.50;5054865;28;20032;-76
2023/03/31 02:02:16;;;;;;;17.05;10.90;;;;;;;8.00;99.24;98632.34;5054592;28;20025;-76
2023/03/31 02:04:52;;;;;;;16.85;11.05;;;;;;;8.14;99.00;98645.44;5055160;28;20025;-76
2023/03/31 02:07:23;;;;;;;20.15;11.60;;;;;;;8.36;99.26;98673.66;5055017;28;20442;-76
2023/03/31 02:09:55;;;;;;;13.50;9.77;;;;;;;8.37;98.85;98664.16;5054798;28;20065;-76
2023/03/31 02:12:23;;;;;;;14.60;10.10;;;;;;;8.37;99.08;98653.78;5054729;28;20032;-76
2023/03/31 02:14:53;;;;;;;14.32;8.63;;;;;;;8.50;99.42;98666.00;5054914;28;20021;-76
2023/03/31 02:17:29;;;;;;;12.10;9.32;;;;;;;8.56;99.46;98664.03;5054827;28;20061;-76
2023/03/31 02:19:57;;;;;;;19.40;12.38;;;;;;;8.62;99.64;98664.50;5054504;28;20111;-76
2023/03/31 02:22:26;;;;;;;19.30;12.70;;;;;;;8.59;99.65;98651.69;5054646;28;20160;-76
2023/03/31 02:24:53;;;;;;;16.20;11.50;;;;;;;8.63;99.45;98653.19;5054458;28;20037;-76
2023/03/31 02:27:25;;;;;;;21.48;10.70;;;;;;;8.61;99.51;98652.47;5054426;28;20052;-76
2023/03/31 02:29:51;;;;;;;16.25;9.90;;;;;;;8.17;99.84;98588.19;5054321;28;20070;-76
2023/03/31 02:32:35;;;;;;;16.20;9.88;;;;;;;8.61;99.51;98660.25;5053223;28;20210;-77
2023/03/31 02:35:01;;;;;;;13.73;8.10;;;;;;;8.60;100.00;98656.00;5054208;28;20032;-76
2023/03/31 02:37:28;;;;;;;10.65;7.63;;;;;;;8.62;99.86;98645.50;5054198;28;20036;-76
2023/03/31 02:39:56;;;;;;;10.65;6.78;;;;;;;8.62;99.74;98629.94;5054209;28;20036;-77
2023/03/31 02:42:22;;;;;;;10.25;7.00;;;;;;;8.69;99.80;98632.13;5054329;28;20029;-77
2023/03/31 02:44:48;;;;;;;11.02;6.65;;;;;;;8.73;99.68;98625.00;5054265;28;20036;-77
2023/03/31 02:47:16;;;;;;;20.05;11.68;;;;;;;8.57;99.39;98611.19;5053864;28;20116;-77
2023/03/31 02:49:50;;;;;;;20.80;14.63;;;;;;;8.62;99.79;98633.38;5053953;28;20032;-77
2023/03/31 02:52:52;;;;;;;13.85;10.75;;;;;;;8.55;99.80;98634.63;5053983;28;20036;-77
2023/03/31 02:55:32;;;;;;;17.30;12.25;;;;;;;8.51;100.00;98630.50;5053975;28;20079;-77
2023/03/31 02:58:04;;;;;;;15.82;12.32;;;;;;;8.47;99.83;98635.06;5053666;28;20033;-77
2023/03/31 03:00:44;;;;;;;16.52;12.57;;;;;;;8.42;99.84;98620.63;5053798;28;20029;-76
2023/03/31 03:03:31;;;;;;;15.73;12.02;;;;;;;8.33;99.95;98616.75;5053744;28;20029;-76
2023/03/31 03:06:05;;;;;;;18.65;13.75;;;;;;;8.34;100.00;98627.97;5053588;28;20500;-77
2023/03/31 03:09:00;;;;;;;15.63;12.10;;;;;;;8.19;99.88;98596.75;5053655;28;20111;-77
2023/03/31 03:11:59;;;;;;;17.58;13.07;;;;;;;8.31;100.00;98617.78;5053827;28;20029;-77
2023/03/31 03:14:53;;;;;;;14.38;10.18;;;;;;;8.28;100.00;98610.97;5051195;28;20037;-77
2023/03/31 03:17:33;;;;;;;15.95;11.68;;;;;;;8.25;99.47;98611.13;5051175;28;20029;-77
2023/03/31 03:20:00;;;;;;;16.88;12.60;;;;;;;8.21;99.93;98605.28;5034200;28;20373;-77
2023/03/31 03:22:26;;;;;;;14.90;11.80;;;;;;;8.09;99.80;98600.75;5051086;28;20050;-77
2023/03/31 03:24:52;;;;;;;14.68;8.77;;;;;;;7.92;100.00;98586.09;5051037;28;20068;-76
2023/03/31 03:27:18;;;;;;;14.10;8.05;;;;;;;7.87;100.00;98592.41;5050366;28;20053;-77
2023/03/31 03:29:43;;;;;;;10.40;8.20;;;;;;;7.98;100.00;98619.47;5050897;28;20107;-76
2023/03/31 03:32:10;;;;;;;11.80;8.88;;;;;;;7.93;99.95;98608.50;5050074;28;20123;-77
2023/03/31 03:34:36;;;;;;;10.40;8.13;;;;;;;7.85;99.91;98592.50;5050811;28;20463;-77
2023/03/31 03:37:01;;;;;;;14.43;10.40;;;;;;;7.90;100.00;98616.44;5050499;28;20166;-77
2023/03/31 03:39:26;;;;;;;13.88;10.38;;;;;;;7.74;100.00;98590.47;5050659;28;20041;-76
2023/03/31 03:41:52;;;;;;;12.10;8.15;;;;;;;7.68;99.77;98597.75;5050647;28;20083;-77
2023/03/31 03:44:17;;;;;;;12.27;8.30;;;;;;;7.57;100.00;98589.66;5050299;28;20102;-76
2023/03/31 03:46:42;;;;;;;12.95;8.48;;;;;;;7.52;99.92;98596.84;5050361;28;20047;-76
2023/03/31 03:49:08;;;;;;;12.48;7.88;;;;;;;7.29;100.00;98562.59;5033272;28;20033;-77
2023/03/31 03:51:33;;;;;;;12.57;9.73;;;;;;;7.25;100.00;98563.66;5051949;28;20133;-76
2023/03/31 03:53:58;;;;;;;12.50;9.45;;;;;;;7.40;100.00;98582.75;5052788;28;20025;-76
2023/03/31 03:56:25;;;;;;;11.45;8.38;;;;;;;7.36;100.00;98587.25;5052590;28;20460;-76
2023/03/31 03:58:50;;;;;;;15.93;11.13;;;;;;;7.40;100.00;98593.13;5052574;28;20025;-77
2023/03/31 04:01:16;;;;;;;14.38;10.07;;;;;;;7.35;100.00;98593.34;5052463;28;20387;-76
2023/03/31 04:03:42;;;;;;;11.43;10.05;;;;;;;7.38;100.00;98592.38;5052622;28;20057;-77
2023/03/31 04:06:07;;;;;;;13.05;9.70;;;;;;;7.32;100.00;98587.47;5052427;28;20546;-77
2023/03/31 04:08:33;;;;;;;12.13;9.93;;;;;;;7.45;100.00;98609.25;5052617;28;20423;-77
2023/03/31 04:10:58;;;;;;;11.35;9.02;;;;;;;7.46;100.00;98604.03;5052193;28;20025;-77
2023/03/31 04:13:23;;;;;;;12.00;9.25;;;;;;;7.37;100.00;98590.66;5052438;28;20031;-77
2023/03/31 04:15:49;;;;;;;13.45;10.65;;;;;;;7.50;100.00;98596.94;5052629;28;20079;-77
2023/03/31 04:18:23;;;;;;;15.35;10.73;;;;;;;7.52;100.00;98602.84;5052292;28;20059;-77
2023/03/31 04:20:53;;;;;;;14.13;11.25;;;;;;;7.49;99.96;98603.84;5052399;28;20055;-77
2023/03/31 04:23:22;;;;;;;14.27;11.02;;;;;;;7.46;100.00;98601.44;5052184;28;20385;-77
2023/03/31 04:25:48;;;;;;;18.02;12.38;;;;;;;7.45;100.00;98589.38;5052043;28;20029;-77
2023/03/31 04:28:14;;;;;;;17.58;11.70;;;;;;;7.42;100.00;98578.34;5051765;28;20052;-76
2023/03/31 04:30:39;;;;;;;14.15;11.80;;;;;;;7.30;100.00;98555.66;5052296;28;20025;-76
2023/03/31 04:33:05;;;;;;;21.08;15.60;;;;;;;7.36;100.00;98565.69;5052016;28;20116;-77
2023/03/31 04:35:48;;;;;;;41.08;20.40;;;;;;;7.48;100.00;98565.91;5052561;28;20025;-77
2023/03/31 04:38:18;;;;;;;36.72;19.63;;;;;;;7.49;100.00;98561.56;5051869;28;20024;-77
2023/03/31 04:40:48;;;;;;;52.85;26.10;;;;;;;7.45;100.00;98558.28;5052176;28;20021;-77
2023/03/31 04:43:15;;;;;;;46.45;24.05;;;;;;;7.56;100.00;98564.69;5051072;28;20113;-76
2023/03/31 04:45:40;;;;;;;32.03;19.77;;;;;;;7.59;100.00;98570.53;5052048;28;20056;-77
2023/03/31 04:48:06;;;;;;;31.02;17.98;;;;;;;7.50;100.00;98542.53;5051685;28;20477;-76
2023/03/31 04:50:31;;;;;;;25.67;15.38;;;;;;;7.49;100.00;98533.88;5051842;28;20492;-77
2023/03/31 04:52:57;;;;;;;34.78;20.42;;;;;;;7.59;100.00;98542.03;5051875;28;20120;-77
2023/03/31 04:55:22;;;;;;;32.25;17.83;;;;;;;7.59;100.00;98549.00;5051901;28;20025;-76
2023/03/31 04:57:48;;;;;;;29.83;17.33;;;;;;;7.59;100.00;98551.56;5052040;28;20035;-76
2023/03/31 05:00:14;;;;;;;24.85;15.60;;;;;;;7.59;100.00;98555.00;5051659;28;20029;-76
2023/03/31 05:02:40;;;;;;;24.55;14.45;;;;;;;7.59;100.00;98562.78;5051810;28;20084;-77
2023/03/31 05:05:05;;;;;;;24.00;15.45;;;;;;;7.34;100.00;98513.16;5051856;28;20029;-77
2023/03/31 05:07:31;;;;;;;25.23;15.38;;;;;;;7.38;99.91;98531.03;5051693;28;20491;-77
2023/03/31 05:09:56;;;;;;;23.83;15.52;;;;;;;7.38;100.00;98531.03;5051840;28;20032;-77
2023/03/31 05:12:21;;;;;;;24.10;15.55;;;;;;;7.50;100.00;98548.53;5051604;28;20033;-76
2023/03/31 05:14:47;;;;;;;22.08;13.60;;;;;;;7.37;99.96;98531.94;5051695;28;20393;-77
2023/03/31 05:17:12;;;;;;;20.92;13.80;;;;;;;7.48;99.97;98534.81;5051857;28;20300;-76
2023/03/31 05:19:37;;;;;;;18.20;13.23;;;;;;;7.66;99.51;98532.19;5051880;28;20025;-77
2023/03/31 05:22:03;;;;;;;26.83;16.80;;;;;;;8.13;98.76;98541.75;5051257;28;20495;-77
2023/03/31 05:24:28;;;;;;;22.95;18.45;;;;;;;8.43;96.66;98508.16;5052014;28;20341;-76
2023/03/31 05:26:56;;;;;;;25.25;17.25;;;;;;;8.99;95.04;98523.09;5051442;28;20055;-76
2023/03/31 05:29:22;;;;;;;15.77;12.10;;;;;;;9.66;92.66;98533.84;5051288;28;20116;-76
2023/03/31 05:31:47;;;;;;;15.77;12.48;;;;;;;10.27;90.56;98539.63;5051551;28;20029;-76
2023/03/31 05:34:14;;;;;;;16.17;12.68;;;;;;;10.78;88.79;98518.16;5051255;28;20100;-76
2023/03/31 05:36:39;;;;;;;17.13;12.63;;;;;;;11.15;85.94;98530.44;5051412;28;20036;-76
2023/03/31 05:39:05;;;;;;;15.07;11.60;;;;;;;10.86;85.22;98513.28;5051355;28;20427;-76
2023/03/31 05:41:31;;;;;;;14.32;11.40;;;;;;;10.83;85.93;98535.19;5051574;28;20060;-76
2023/03/31 05:43:56;;;;;;;14.70;10.27;;;;;;;10.61;86.56;98514.06;5051507;28;20432;-76
2023/03/31 05:46:22;;;;;;;11.52;10.02;;;;;;;10.50;87.26;98509.56;5051220;28;20037;-76
2023/03/31 05:48:47;;;;;;;11.13;9.00;;;;;;;10.61;87.21;98527.06;5051412;28;20032;-77
2023/03/31 05:51:12;;;;;;;14.95;9.73;;;;;;;10.39;87.04;98499.81;5050905;28;20040;-76
2023/03/31 05:53:38;;;;;;;12.75;9.85;;;;;;;10.31;87.68;98520.28;5051323;28;20029;-76
2023/03/31 05:56:05;;;;;;;10.30;8.88;;;;;;;10.10;88.33;98517.25;5054348;28;20052;-77
2023/03/31 05:58:34;;;;;;;12.38;9.07;;;;;;;9.96;89.00;98509.47;5055161;28;20116;-76
2023/03/31 06:01:08;;;;;;;14.75;9.63;;;;;;;9.92;89.14;98500.19;5055028;28;20025;-77
2023/03/31 06:03:35;;;;;;;13.43;9.32;;;;;;;10.07;89.48;98519.19;5054857;28;20037;-77
2023/03/31 06:06:01;;;;;;;12.73;9.50;;;;;;;9.99;89.43;98512.72;5055108;28;20366;-77
2023/03/31 06:08:28;;;;;;;12.95;9.07;;;;;;;9.83;90.02;98498.19;5054919;28;20100;-76
2023/03/31 06:10:53;;;;;;;13.38;9.75;;;;;;;9.91;90.60;98514.97;5054915;28;20021;-76
2023/03/31 06:13:18;;;;;;;14.48;10.45;;;;;;;9.67;90.56;98474.88;5053446;28;20032;-76
2023/03/31 06:15:54;;;;;;;15.32;10.40;;;;;;;9.84;90.73;98505.88;5054776;28;20029;-76
2023/03/31 06:18:19;;;;;;;13.65;11.57;;;;;;;9.73;91.10;98497.88;5054331;28;20082;-76
2023/03/31 06:20:44;;;;;;;15.60;11.35;;;;;;;9.65;91.42;98472.38;5054843;28;20108;-76
2023/03/31 06:23:10;;;;;;;12.13;9.70;;;;;;;9.89;91.26;98488.22;5054570;28;20031;-76
2023/03/31 06:25:37;;;;;;;15.90;12.23;;;;;;;10.07;90.75;98491.44;5054563;28;20028;-76
2023/03/31 06:28:02;;;;;;;16.45;11.98;;;;;;;10.31;90.30;98509.06;5054236;28;20044;-76
2023/03/31 06:30:27;;;;;;;20.25;14.18;;;;;;;10.42;89.73;98484.03;5054100;28;20025;-76
2023/03/31 06:32:53;;;;;;;16.88;14.13;;;;;;;10.81;88.62;98495.38;5054250;28;20033;-76
2023/03/31 06:35:18;;;;;;;18.13;13.00;;;;;;;11.22;87.57;98484.78;5054091;28;20074;-76
2023/03/31 06:37:43;;;;;;;15.77;11.43;;;;;;;11.29;86.43;98479.97;5054380;28;20049;-76
2023/03/31 06:40:09;;;;;;;12.95;10.93;;;;;;;11.47;86.27;98501.38;5054160;28;20031;-77
2023/03/31 06:42:35;;;;;;;15.77;10.98;;;;;;;11.61;85.77;98495.19;5054191;28;20381;-76
2023/03/31 06:45:00;;;;;;;12.63;10.50;;;;;;;11.54;85.87;98484.34;5054145;28;20020;-77
2023/03/31 06:47:25;;;;;;;14.63;10.60;;;;;;;11.58;85.22;98475.38;5053730;28;20029;-77
2023/03/31 06:49:50;;;;;;;14.00;11.32;;;;;;;11.66;86.06;98493.94;5054252;28;20047;-76
2023/03/31 06:52:16;;;;;;;15.20;11.55;;;;;;;11.37;85.85;98438.56;5053945;28;20037;-77
2023/03/31 06:54:41;;;;;;;16.95;11.20;;;;;;;11.67;85.69;98477.38;5054114;28;20017;-76
2023/03/31 06:57:06;;;;;;;15.52;10.27;;;;;;;11.74;86.04;98490.78;5053956;28;20036;-77
2023/03/31 06:59:32;;;;;;;10.27;9.25;;;;;;;11.77;86.05;98471.50;5053808;28;20029;-76
2023/03/31 07:01:57;;;;;;;15.00;10.02;;;;;;;11.78;85.85;98455.72;5053807;28;20036;-77
2023/03/31 07:04:22;;;;;;;13.57;10.45;;;;;;;11.77;85.48;98434.97;5053780;28;20052;-76
2023/03/31 07:06:48;;;;;;;14.45;10.63;;;;;;;11.94;85.27;98445.91;5053471;28;20029;-76
2023/03/31 07:09:13;;;;;;;14.60;9.93;;;;;;;12.07;84.97;98452.84;5053568;28;20036;-76
2023/03/31 07:11:38;;;;;;;13.52;10.50;;;;;;;12.27;84.73;98467.91;5053576;28;20036;-76
2023/03/31 07:14:04;;;;;;;12.05;9.45;;;;;;;12.40;84.53;98460.84;5053609;28;20033;-76
2023/03/31 07:16:30;;;;;;;13.27;9.73;;;;;;;12.51;83.82;98454.84;5053260;28;20488;-76
2023/03/31 07:18:58;;;;;;;12.38;9.93;;;;;;;12.56;83.42;98444.91;5053714;28;20036;-77
2023/03/31 07:21:24;;;;;;;12.27;9.23;;;;;;;12.62;83.25;98431.38;5053284;28;20530;-76
2023/03/31 07:23:49;;;;;;;13.75;9.43;;;;;;;12.74;83.11;98424.41;5053633;28;20522;-76
2023/03/31 07:26:15;;;;;;;8.65;7.70;;;;;;;12.70;82.84;98421.19;5053272;28;20028;-77
2023/03/31 07:28:40;;;;;;;10.70;8.80;;;;;;;12.66;83.07;98404.06;5053045;28;20126;-77
2023/03/31 07:31:13;;;;;;;14.85;10.13;;;;;;;12.90;82.85;98435.38;5053128;28;20028;-76
2023/03/31 07:33:38;;;;;;;13.48;8.93;;;;;;;12.94;82.61;98428.16;5053594;28;20037;-76
2023/03/31 07:36:05;;;;;;;11.23;8.73;;;;;;;12.85;82.75;98421.84;5053518;28;20364;-77
2023/03/31 07:38:30;;;;;;;10.63;8.90;;;;;;;12.77;83.15;98410.25;5053005;28;20094;-76
2023/03/31 07:40:56;;;;;;;9.85;8.85;;;;;;;12.74;82.91;98412.19;5053166;28;20020;-77
2023/03/31 07:43:21;;;;;;;13.15;8.77;;;;;;;12.72;83.13;98408.00;5052796;28;20078;-76
2023/03/31 07:45:46;;;;;;;10.43;8.48;;;;;;;12.79;83.33;98418.84;5052931;28;20055;-77
2023/03/31 07:48:12;;;;;;;10.38;8.50;;;;;;;12.79;83.46;98409.22;5053102;28;20088;-77
2023/03/31 07:50:37;;;;;;;10.68;8.35;;;;;;;13.68;82.61;98418.91;5052833;28;20472;-76
2023/03/31 07:53:02;;;;;;;12.10;9.02;;;;;;;14.56;79.42;98411.88;5052935;28;20108;-76
2023/03/31 07:55:28;;;;;;;11.65;8.05;;;;;;;17.54;72.66;98411.66;5052719;28;20021;-76
2023/03/31 07:57:53;;;;;;;10.30;7.32;;;;;;;20.72;62.69;98394.34;5052746;28;20025;-76
2023/03/31 08:00:20;;;;;;;9.95;6.80;;;;;;;21.88;57.42;98404.47;5052474;28;20029;-76
2023/03/31 08:02:45;;;;;;;7.90;6.22;;;;;;;21.74;56.77;98405.16;5052876;28;20471;-77
2023/03/31 08:05:13;;;;;;;10.25;6.95;;;;;;;20.65;57.73;98388.06;5052778;28;20124;-77
2023/03/31 08:07:40;;;;;;;7.35;6.30;;;;;;;21.47;56.87;98401.97;5052698;28;20094;-77
2023/03/31 08:10:09;;;;;;;6.70;6.10;;;;;;;22.24;55.55;98401.28;5052505;28;20025;-77
2023/03/31 08:12:34;;;;;;;9.43;6.65;;;;;;;21.80;55.51;98394.72;5052116;28;20060;-77
2023/03/31 08:15:00;;;;;;;9.50;6.47;;;;;;;20.93;57.23;98376.09;5052437;28;20067;-77
2023/03/31 08:17:25;;;;;;;9.07;6.68;;;;;;;20.24;58.49;98374.81;5052141;28;20112;-77
2023/03/31 08:19:51;;;;;;;8.10;6.80;;;;;;;19.66;59.41;98392.34;5052490;28;20420;-77
2023/03/31 08:22:16;;;;;;;7.30;6.57;;;;;;;18.94;60.58;98354.03;5052218;28;20099;-77
2023/03/31 08:24:41;;;;;;;9.90;7.18;;;;;;;18.68;61.74;98393.56;5052303;28;20024;-77
2023/03/31 08:27:07;;;;;;;11.75;7.80;;;;;;;17.97;62.98;98388.31;5052252;28;20045;-77
2023/03/31 08:29:32;;;;;;;9.23;7.05;;;;;;;17.79;63.87;98383.03;5052028;28;20035;-77
2023/03/31 08:31:58;;;;;;;10.57;7.57;;;;;;;17.77;64.77;98377.88;5052317;28;20147;-77
2023/03/31 08:34:23;;;;;;;8.60;7.00;;;;;;;17.84;64.32;98389.50;5052054;28;20021;-77
2023/03/31 08:36:49;;;;;;;8.40;7.15;;;;;;;17.77;64.14;98383.16;5052261;28;20033;-77
2023/03/31 08:39:14;;;;;;;10.13;7.65;;;;;;;17.48;64.70;98382.44;5051996;28;20025;-77
2023/03/31 08:42:06;;;;;;;12.32;8.50;;;;;;;17.06;66.25;98375.00;5052079;28;20040;-77
2023/03/31 08:44:37;;;;;;;10.82;7.30;;;;;;;17.00;66.95;98357.19;5040817;28;20023;-77
2023/03/31 08:47:05;;;;;;;8.57;6.82;;;;;;;16.92;66.67;98328.97;5032369;28;20072;-77
2023/03/31 08:49:41;;;;;;;9.50;6.15;;;;;;;17.15;66.28;98342.56;5034182;28;20121;-77
2023/03/31 08:52:13;;;;;;;9.82;7.40;;;;;;;16.76;66.35;98305.88;5034296;28;20075;-77
2023/03/31 08:54:45;;;;;;;9.55;6.90;;;;;;;16.74;66.87;98321.00;5031812;28;20030;-77
2023/03/31 08:57:25;;;;;;;9.07;7.00;;;;;;;16.45;66.94;98316.59;5031956;28;20056;-77
2023/03/31 08:59:51;;;;;;;9.95;6.22;;;;;;;16.26;68.17;98321.88;5031875;28;20057;-77
2023/03/31 09:02:47;;;;;;;9.27;7.38;;;;;;;16.13;68.79;98319.53;5029457;28;20108;-77
2023/03/31 09:05:27;;;;;;;10.43;7.10;;;;;;;16.26;68.72;98337.63;5032054;28;20116;-77
2023/03/31 09:08:01;;;;;;;9.75;7.35;;;;;;;16.34;68.62;98334.31;5036376;28;20068;-77
2023/03/31 09:11:03;;;;;;;8.38;7.43;;;;;;;16.42;68.24;98329.19;5031705;28;20025;-77
2023/03/31 09:13:44;;;;;;;10.43;7.80;;;;;;;16.53;67.49;98330.84;5029238;28;20045;-77
2023/03/31 09:16:36;;;;;;;8.80;7.60;;;;;;;16.50;67.49;98305.66;5029551;28;20030;-77
2023/03/31 09:19:02;;;;;;;9.85;7.88;;;;;;;16.67;66.65;98302.28;5029543;28;20030;-77
2023/03/31 09:21:31;;;;;;;11.30;8.38;;;;;;;17.05;66.19;98312.84;5029081;28;20021;-77
2023/03/31 09:24:06;;;;;;;11.02;8.45;;;;;;;17.17;66.57;98309.88;5029313;28;20041;-77
2023/03/31 09:26:41;;;;;;;22.08;13.48;;;;;;;17.33;66.06;98300.53;5028895;28;20036;-77
2023/03/31 09:29:23;;;;;;;10.35;8.02;;;;;;;17.52;65.33;98318.00;5029130;28;20021;-77
2023/03/31 09:31:49;;;;;;;8.95;7.35;;;;;;;17.19;65.35;98294.78;5033222;28;20030;-77
2023/03/31 09:34:27;;;;;;;11.15;9.15;;;;;;;17.26;65.62;98309.97;5033141;28;20423;-77
2023/03/31 09:36:52;;;;;;;10.52;7.25;;;;;;;17.10;65.91;98308.81;5016533;28;20374;-77
2023/03/31 09:39:17;;;;;;;8.55;7.00;;;;;;;16.99;66.56;98305.56;5032847;28;20032;-77
2023/03/31 09:41:49;;;;;;;9.60;7.32;;;;;;;16.82;66.67;98278.22;5035348;28;20049;-77
2023/03/31 09:44:35;;;;;;;11.30;7.18;;;;;;;16.80;67.33;98309.06;5032874;28;20504;-77
2023/03/31 09:47:02;;;;;;;9.45;7.05;;;;;;;16.54;68.11;98298.31;5032995;28;20042;-77
2023/03/31 09:49:34;;;;;;;9.65;6.97;;;;;;;16.63;68.29;98292.19;5033536;28;20485;-77
2023/03/31 09:52:14;;;;;;;9.43;6.80;;;;;;;16.56;68.56;98265.69;5035393;28;20029;-77
2023/03/31 09:54:48;;;;;;;10.40;7.18;;;;;;;16.55;68.69;98278.94;5034941;28;20033;-77
2023/03/31 09:57:26;;;;;;;12.20;7.53;;;;;;;16.10;69.02;98238.41;5035026;28;20124;-77
2023/03/31 09:59:52;;;;;;;9.98;6.53;;;;;;;16.36;69.56;98266.69;5034742;28;20028;-77
2023/03/31 10:02:36;;;;;;;9.45;7.22;;;;;;;16.21;69.69;98234.78;5053970;28;20025;-77
2023/03/31 10:05:04;;;;;;;10.00;7.22;;;;;;;16.16;69.85;98255.38;5054662;28;20507;-77
2023/03/31 10:07:30;;;;;;;9.93;6.80;;;;;;;16.11;69.37;98231.34;5054322;28;20036;-77
2023/03/31 10:09:56;;;;;;;12.15;6.93;;;;;;;16.26;69.41;98245.69;5054806;28;20039;-77
2023/03/31 10:12:25;;;;;;;7.75;6.88;;;;;;;16.18;69.64;98228.03;5054596;28;20067;-77
2023/03/31 10:14:53;;;;;;;8.35;6.85;;;;;;;16.29;69.66;98234.88;5054800;28;20419;-77
2023/03/31 10:17:21;;;;;;;11.05;6.03;;;;;;;16.19;69.24;98210.47;5054727;28;20384;-77
2023/03/31 10:19:49;;;;;;;7.15;6.10;;;;;;;16.00;69.04;98184.22;5054603;28;20025;-75
2023/03/31 10:22:27;;;;;;;11.25;6.63;;;;;;;16.33;68.83;98211.78;5054770;28;20519;-75
2023/03/31 10:24:53;;;;;;;9.40;6.35;;;;;;;16.61;68.85;98233.69;5054527;28;20029;-75
2023/03/31 10:27:21;;;;;;;8.18;5.75;;;;;;;16.67;68.17;98225.22;5054380;28;20052;-75
2023/03/31 10:29:46;;;;;;;9.43;7.07;;;;;;;16.53;68.62;98218.66;5053171;28;20376;-75
2023/03/31 10:32:27;;;;;;;9.77;7.07;;;;;;;16.58;67.90;98226.91;5054741;28;20029;-75
2023/03/31 10:34:54;;;;;;;11.33;7.60;;;;;;;16.49;68.04;98219.91;5054679;28;20060;-75
2023/03/31 10:37:23;;;;;;;12.25;6.80;;;;;;;16.57;69.15;98225.28;5054425;28;20039;-75
2023/03/31 10:40:00;;;;;;;11.25;7.38;;;;;;;16.64;68.66;98217.63;5054251;28;20463;-75
2023/03/31 10:42:27;;;;;;;11.30;6.97;;;;;;;16.63;68.33;98203.66;5051629;28;20388;-75
2023/03/31 10:45:11;;;;;;;12.68;7.30;;;;;;;16.71;68.54;98216.06;5054115;28;20082;-75
2023/03/31 10:47:38;;;;;;;8.40;7.50;;;;;;;16.64;68.48;98188.69;5054069;28;20100;-75
2023/03/31 10:50:11;;;;;;;11.95;7.72;;;;;;;16.87;68.66;98203.16;5054086;28;20068;-75
2023/03/31 10:52:44;;;;;;;10.40;6.90;;;;;;;16.86;67.81;98203.31;5053759;28;20025;-78
2023/03/31 10:55:21;;;;;;;9.15;6.68;;;;;;;16.96;68.06;98191.75;5053841;28;20029;-75
2023/03/31 10:57:55;;;;;;;11.32;7.65;;;;;;;16.80;67.84;98182.84;5053958;28;20028;-75
2023/03/31 11:00:36;;;;;;;10.85;7.43;;;;;;;16.57;68.48;98162.19;5054207;28;20052;-75
2023/03/31 11:03:11;;;;;;;8.30;7.22;;;;;;;16.63;68.75;98180.00;5053929;28;20435;-78
2023/03/31 11:05:48;;;;;;;8.98;6.70;;;;;;;16.79;68.51;98165.44;5053535;28;20047;-78
2023/03/31 11:08:52;;;;;;;9.52;6.30;;;;;;;16.95;67.22;98160.34;5053829;28;20029;-78
2023/03/31 11:11:30;;;;;;;9.75;5.90;;;;;;;16.91;66.29;98170.34;5051152;28;20045;-77
2023/03/31 11:14:07;;;;;;;8.30;6.15;;;;;;;16.90;66.17;98131.88;5051367;28;20080;-78
2023/03/31 11:16:36;;;;;;;5.72;5.22;;;;;;;16.97;67.17;98147.88;5050872;28;20507;-78
2023/03/31 11:19:16;;;;;;;11.25;5.70;;;;;;;16.88;66.76;98149.59;5051411;28;20037;-77
2023/03/31 11:21:59;;;;;;;8.40;5.63;;;;;;;16.52;66.31;98126.78;5050756;28;20040;-78
2023/03/31 11:24:56;;;;;;;7.80;5.03;;;;;;;16.68;66.98;98122.53;5050765;28;20037;-77
2023/03/31 11:27:41;;;;;;;6.82;5.28;;;;;;;16.93;67.03;98128.09;5050692;28;20052;-78
2023/03/31 11:30:51;;;;;;;8.90;5.43;;;;;;;16.83;66.66;98120.28;5050884;28;20033;-77
2023/03/31 11:33:37;;;;;;;8.00;5.13;;;;;;;16.86;67.19;98111.28;4971616;28;20035;-78
2023/03/31 11:36:32;;;;;;;8.35;5.20;;;;;;;16.82;67.76;98109.94;4972087;28;20039;-78
2023/03/31 11:39:02;;;;;;;11.13;5.75;;;;;;;16.81;67.78;98103.00;4970811;28;20085;-78
2023/03/31 11:41:36;;;;;;;8.88;5.70;;;;;;;16.66;67.85;98111.38;4971700;28;20038;-75
2023/03/31 11:44:05;;;;;;;8.70;4.57;;;;;;;16.59;67.80;98093.69;4971893;28;20034;-75